PWSweather.com
Personal Weather Stations
Station Observations
KPLY111
14 Baltic Ave., Plymouth, MA 02360

14 Baltic Ave.Plymouth, MA 02360

Lat: 41.94, Lon: -70.66

Elevation: 110

Station Type: Davis Vantage Pro Plus 2

http://johnsweather.com/

High Low Average
Temperature 61.4°F16.3°C 49.3°F9.6°C 56.3°F13.5°C
Dew Point 58.0°F14.4°C 46.0°F7.8°C 53.1°F11.7°C
Winds 23.0 mph 37.0 kmh Calm Calm 7.0 mph S11.3 kmh S
Wind Gusts 32.0 mph51.5 kmh 5.0 mph8.0 kmh 18.0 mph29.0 kmh
Humidity 90% 85% 89%
Pressure 30.03 in1016.9 mb 29.12 in986.1 mb -
Precipitation 1.55 in39.4 mm - -
Hour Temp Dew Point Humidity Winds Wind Gusts Pressure Precip Precip Rate Daily Precip Total
12:00 AM 49.3°F9.6°C 46.0°F7.8°C 88% 4.0 mph ESE6.4 kmh ESE 9.0 mph14.5 kmh 30.03 in1016.9 mb 0.00 in0.0 mm 0.00 in0.0 mm 0.00 in0.0 mm
12:05 AM 49.4°F9.7°C 46.0°F7.8°C 87% 3.0 mph S4.8 kmh S 9.0 mph14.5 kmh 30.03 in1016.9 mb 0.00 in0.0 mm 0.00 in0.0 mm 0.00 in0.0 mm
12:10 AM 49.3°F9.6°C 46.0°F7.8°C 87% 2.0 mph SE3.2 kmh SE 9.0 mph14.5 kmh 30.02 in1016.6 mb 0.00 in0.0 mm 0.00 in0.0 mm 0.00 in0.0 mm
12:15 AM 49.4°F9.7°C 46.0°F7.8°C 87% 1.0 mph ESE1.6 kmh ESE 7.0 mph11.3 kmh 30.02 in1016.6 mb 0.00 in0.0 mm 0.00 in0.0 mm 0.01 in0.3 mm
12:20 AM 49.3°F9.6°C 46.0°F7.8°C 87% Calm Calm 8.0 mph12.9 kmh 30.02 in1016.6 mb 0.00 in0.0 mm 0.00 in0.0 mm 0.01 in0.3 mm
12:25 AM 49.4°F9.7°C 46.0°F7.8°C 88% Calm Calm 9.0 mph14.5 kmh 30.01 in1016.3 mb 0.00 in0.0 mm 0.00 in0.0 mm 0.01 in0.3 mm
12:30 AM 49.4°F9.7°C 46.0°F7.8°C 88% 5.0 mph E8.0 kmh E 9.0 mph14.5 kmh 30.01 in1016.3 mb 0.00 in0.0 mm 0.00 in0.0 mm 0.01 in0.3 mm
12:35 AM 49.6°F9.8°C 46.0°F7.8°C 88% 6.0 mph SE9.7 kmh SE 7.0 mph11.3 kmh 30.01 in1016.3 mb 0.00 in0.0 mm 0.00 in0.0 mm 0.01 in0.3 mm
12:40 AM 49.7°F9.8°C 46.0°F7.8°C 88% Calm Calm 9.0 mph14.5 kmh 30.00 in1015.9 mb 0.00 in0.0 mm 0.00 in0.0 mm 0.01 in0.3 mm
12:45 AM 50.0°F10.0°C 47.0°F8.3°C 88% 1.0 mph S1.6 kmh S 9.0 mph14.5 kmh 30.00 in1015.9 mb 0.00 in0.0 mm 0.00 in0.0 mm 0.02 in0.5 mm
12:50 AM 50.1°F10.1°C 47.0°F8.3°C 88% 2.0 mph S3.2 kmh S 6.0 mph9.7 kmh 30.00 in1015.9 mb 0.11 in2.8 mm 1.32 in33.5 mm 0.03 in0.8 mm
12:55 AM 50.2°F10.1°C 47.0°F8.3°C 88% 1.0 mph S1.6 kmh S 6.0 mph9.7 kmh 29.99 in1015.6 mb 0.08 in2.0 mm 0.00 in0.0 mm 0.03 in0.8 mm
01:00 AM 50.4°F10.2°C 47.0°F8.3°C 88% Calm Calm 5.0 mph8.0 kmh 29.98 in1015.2 mb 0.22 in5.6 mm 0.15 in3.8 mm 0.05 in1.3 mm
01:05 AM 50.5°F10.3°C 47.0°F8.3°C 88% 2.0 mph E3.2 kmh E 6.0 mph9.7 kmh 29.98 in1015.2 mb 0.30 in7.6 mm 0.96 in24.4 mm 0.07 in1.8 mm
01:10 AM 50.5°F10.3°C 47.0°F8.3°C 88% 1.0 mph SE1.6 kmh SE 6.0 mph9.7 kmh 29.97 in1014.9 mb 0.21 in5.3 mm 0.00 in0.0 mm 0.09 in2.3 mm
01:15 AM 50.5°F10.3°C 47.0°F8.3°C 88% 4.0 mph E6.4 kmh E 6.0 mph9.7 kmh 29.97 in1014.9 mb 0.15 in3.8 mm 0.00 in0.0 mm 0.10 in2.5 mm
01:20 AM 50.6°F10.3°C 47.0°F8.3°C 88% Calm Calm 6.0 mph9.7 kmh 29.96 in1014.6 mb 0.15 in3.8 mm 0.00 in0.0 mm 0.11 in2.8 mm
01:25 AM 50.7°F10.4°C 47.0°F8.3°C 88% Calm Calm 7.0 mph11.3 kmh 29.96 in1014.6 mb 0.11 in2.8 mm 0.00 in0.0 mm 0.12 in3.0 mm
01:30 AM 50.9°F10.5°C 48.0°F8.9°C 88% 4.0 mph E6.4 kmh E 9.0 mph14.5 kmh 29.95 in1014.2 mb 0.13 in3.3 mm 0.24 in6.1 mm 0.13 in3.3 mm
01:35 AM 51.0°F10.6°C 48.0°F8.9°C 88% 1.0 mph SSE1.6 kmh SSE 10.0 mph16.1 kmh 29.95 in1014.2 mb 0.08 in2.0 mm 0.00 in0.0 mm 0.14 in3.6 mm
01:40 AM 51.2°F10.7°C 48.0°F8.9°C 88% 2.0 mph SE3.2 kmh SE 10.0 mph16.1 kmh 29.94 in1013.9 mb 0.18 in4.6 mm 1.20 in30.5 mm 0.16 in4.1 mm
01:45 AM 51.2°F10.7°C 48.0°F8.9°C 88% 4.0 mph S6.4 kmh S 10.0 mph16.1 kmh 29.94 in1013.9 mb 0.17 in4.3 mm 0.00 in0.0 mm 0.17 in4.3 mm
01:50 AM 51.4°F10.8°C 48.0°F8.9°C 88% 1.0 mph ESE1.6 kmh ESE 9.0 mph14.5 kmh 29.94 in1013.9 mb 0.33 in8.4 mm 1.92 in48.8 mm 0.19 in4.8 mm
01:55 AM 51.4°F10.8°C 48.0°F8.9°C 88% 5.0 mph ESE8.0 kmh ESE 8.0 mph12.9 kmh 29.93 in1013.5 mb 0.30 in7.6 mm 0.00 in0.0 mm 0.21 in5.3 mm
02:00 AM 51.6°F10.9°C 48.0°F8.9°C 88% 5.0 mph S8.0 kmh S 13.0 mph20.9 kmh 29.93 in1013.5 mb 0.26 in6.6 mm 0.00 in0.0 mm 0.24 in6.1 mm
02:05 AM 51.7°F10.9°C 48.0°F8.9°C 88% 5.0 mph ESE8.0 kmh ESE 16.0 mph25.7 kmh 29.92 in1013.2 mb 0.68 in17.3 mm 5.04 in128.0 mm 0.27 in6.9 mm
02:10 AM 51.7°F10.9°C 48.0°F8.9°C 88% 5.0 mph S8.0 kmh S 16.0 mph25.7 kmh 29.91 in1012.9 mb 0.24 in6.1 mm 0.00 in0.0 mm 0.29 in7.4 mm
02:15 AM 51.9°F11.1°C 49.0°F9.4°C 88% 3.0 mph SSE4.8 kmh SSE 12.0 mph19.3 kmh 29.91 in1012.9 mb 0.19 in4.8 mm 0.00 in0.0 mm 0.31 in7.9 mm
02:20 AM 52.0°F11.1°C 49.0°F9.4°C 88% 3.0 mph SE4.8 kmh SE 13.0 mph20.9 kmh 29.90 in1012.5 mb 0.18 in4.6 mm 0.00 in0.0 mm 0.33 in8.4 mm
02:25 AM 52.0°F11.1°C 49.0°F9.4°C 88% 5.0 mph S8.0 kmh S 13.0 mph20.9 kmh 29.89 in1012.2 mb 0.24 in6.1 mm 0.72 in18.3 mm 0.35 in8.9 mm
02:30 AM 52.1°F11.2°C 49.0°F9.4°C 88% 5.0 mph ESE8.0 kmh ESE 12.0 mph19.3 kmh 29.88 in1011.9 mb 0.28 in7.1 mm 0.48 in12.2 mm 0.38 in9.7 mm
02:35 AM 52.2°F11.2°C 49.0°F9.4°C 88% 9.0 mph S14.5 kmh S 14.0 mph22.5 kmh 29.88 in1011.9 mb 0.35 in8.9 mm 0.84 in21.3 mm 0.40 in10.2 mm
02:40 AM 52.4°F11.3°C 49.0°F9.4°C 88% 7.0 mph ENE11.3 kmh ENE 14.0 mph22.5 kmh 29.87 in1011.5 mb 0.38 in9.7 mm 0.36 in9.1 mm 0.43 in10.9 mm
02:45 AM 52.4°F11.3°C 49.0°F9.4°C 88% 5.0 mph E8.0 kmh E 13.0 mph20.9 kmh 29.86 in1011.2 mb 0.31 in7.9 mm 0.00 in0.0 mm 0.45 in11.4 mm
02:50 AM 52.6°F11.4°C 49.0°F9.4°C 88% 7.0 mph SE11.3 kmh SE 16.0 mph25.7 kmh 29.85 in1010.8 mb 0.13 in3.3 mm 0.00 in0.0 mm 0.46 in11.7 mm
02:55 AM 52.8°F11.6°C 49.0°F9.4°C 88% 23.0 mph SE37.0 kmh SE 23.0 mph37.0 kmh 29.84 in1010.5 mb 0.17 in4.3 mm 0.48 in12.2 mm 0.47 in11.9 mm
03:00 AM 52.8°F11.6°C 49.0°F9.4°C 88% 9.0 mph SE14.5 kmh SE 23.0 mph37.0 kmh 29.84 in1010.5 mb 0.09 in2.3 mm 0.00 in0.0 mm 0.48 in12.2 mm
03:05 AM 52.8°F11.6°C 49.0°F9.4°C 88% 3.0 mph SSE4.8 kmh SSE 23.0 mph37.0 kmh 29.83 in1010.2 mb 0.17 in4.3 mm 0.96 in24.4 mm 0.50 in12.7 mm
03:10 AM 52.8°F11.6°C 49.0°F9.4°C 88% 3.0 mph S4.8 kmh S 22.0 mph35.4 kmh 29.82 in1009.8 mb 0.17 in4.3 mm 0.00 in0.0 mm 0.51 in13.0 mm
03:15 AM 52.9°F11.6°C 50.0°F10.0°C 88% 6.0 mph E9.7 kmh E 19.0 mph30.6 kmh 29.82 in1009.8 mb 0.10 in2.5 mm 0.00 in0.0 mm 0.52 in13.2 mm
03:20 AM 52.9°F11.6°C 50.0°F10.0°C 88% 5.0 mph SE8.0 kmh SE 20.0 mph32.2 kmh 29.81 in1009.5 mb 0.15 in3.8 mm 0.60 in15.2 mm 0.53 in13.5 mm
03:25 AM 53.0°F11.7°C 50.0°F10.0°C 88% 4.0 mph SSE6.4 kmh SSE 20.0 mph32.2 kmh 29.80 in1009.1 mb 0.12 in3.0 mm 0.00 in0.0 mm 0.54 in13.7 mm
03:30 AM 53.0°F11.7°C 50.0°F10.0°C 88% 6.0 mph SSW9.7 kmh SSW 25.0 mph40.2 kmh 29.80 in1009.1 mb 0.18 in4.6 mm 0.72 in18.3 mm 0.55 in14.0 mm
03:35 AM 53.1°F11.7°C 50.0°F10.0°C 89% 7.0 mph SE11.3 kmh SE 22.0 mph35.4 kmh 29.80 in1009.1 mb 0.22 in5.6 mm 0.48 in12.2 mm 0.58 in14.7 mm
03:40 AM 53.1°F11.7°C 50.0°F10.0°C 89% 9.0 mph SE14.5 kmh SE 22.0 mph35.4 kmh 29.79 in1008.8 mb 0.21 in5.3 mm 0.00 in0.0 mm 0.60 in15.2 mm
03:45 AM 53.0°F11.7°C 50.0°F10.0°C 89% 9.0 mph SE14.5 kmh SE 16.0 mph25.7 kmh 29.77 in1008.1 mb 0.31 in7.9 mm 1.20 in30.5 mm 0.62 in15.7 mm
03:50 AM 53.0°F11.7°C 50.0°F10.0°C 89% 7.0 mph SE11.3 kmh SE 16.0 mph25.7 kmh 29.77 in1008.1 mb 0.17 in4.3 mm 0.00 in0.0 mm 0.63 in16.0 mm
03:55 AM 53.0°F11.7°C 50.0°F10.0°C 89% 4.0 mph SE6.4 kmh SE 19.0 mph30.6 kmh 29.76 in1007.8 mb 0.40 in10.2 mm 2.76 in70.1 mm 0.65 in16.5 mm
04:00 AM 53.1°F11.7°C 50.0°F10.0°C 89% 4.0 mph ESE6.4 kmh ESE 25.0 mph40.2 kmh 29.75 in1007.5 mb 0.18 in4.6 mm 0.00 in0.0 mm 0.67 in17.0 mm
04:05 AM 53.3°F11.8°C 50.0°F10.0°C 89% 8.0 mph SE12.9 kmh SE 25.0 mph40.2 kmh 29.75 in1007.5 mb 0.22 in5.6 mm 0.48 in12.2 mm 0.69 in17.5 mm
04:10 AM 53.5°F11.9°C 50.0°F10.0°C 89% 5.0 mph SE8.0 kmh SE 21.0 mph33.8 kmh 29.75 in1007.5 mb 0.12 in3.0 mm 0.00 in0.0 mm 0.70 in17.8 mm
04:15 AM 53.7°F12.1°C 51.0°F10.6°C 89% 10.0 mph SE16.1 kmh SE 21.0 mph33.8 kmh 29.74 in1007.1 mb 0.20 in5.1 mm 0.96 in24.4 mm 0.71 in18.0 mm
04:20 AM 53.8°F12.1°C 51.0°F10.6°C 89% 6.0 mph SE9.7 kmh SE 21.0 mph33.8 kmh 29.73 in1006.8 mb 0.27 in6.9 mm 0.84 in21.3 mm 0.73 in18.5 mm
04:25 AM 54.0°F12.2°C 51.0°F10.6°C 89% 7.0 mph S11.3 kmh S 24.0 mph38.6 kmh 29.73 in1006.8 mb 0.10 in2.5 mm 0.00 in0.0 mm 0.73 in18.5 mm
04:30 AM 54.1°F12.3°C 51.0°F10.6°C 89% 8.0 mph S12.9 kmh S 24.0 mph38.6 kmh 29.72 in1006.4 mb 0.08 in2.0 mm 0.00 in0.0 mm 0.74 in18.8 mm
04:35 AM 54.1°F12.3°C 51.0°F10.6°C 89% 12.0 mph ESE19.3 kmh ESE 23.0 mph37.0 kmh 29.71 in1006.1 mb 0.13 in3.3 mm 0.60 in15.2 mm 0.75 in19.1 mm
04:40 AM 54.2°F12.3°C 51.0°F10.6°C 89% 10.0 mph SSE16.1 kmh SSE 23.0 mph37.0 kmh 29.71 in1006.1 mb 0.22 in5.6 mm 1.08 in27.4 mm 0.77 in19.6 mm
04:45 AM 54.2°F12.3°C 51.0°F10.6°C 88% 19.0 mph S30.6 kmh S 20.0 mph32.2 kmh 29.70 in1005.8 mb 0.16 in4.1 mm 0.00 in0.0 mm 0.78 in19.8 mm
04:50 AM 54.2°F12.3°C 51.0°F10.6°C 89% 8.0 mph SE12.9 kmh SE 20.0 mph32.2 kmh 29.70 in1005.8 mb 0.14 in3.6 mm 0.00 in0.0 mm 0.79 in20.1 mm
04:55 AM 54.2°F12.3°C 51.0°F10.6°C 88% 8.0 mph S12.9 kmh S 24.0 mph38.6 kmh 29.69 in1005.4 mb 0.06 in1.5 mm 0.00 in0.0 mm 0.79 in20.1 mm
05:00 AM 54.3°F12.4°C 51.0°F10.6°C 88% 6.0 mph S9.7 kmh S 24.0 mph38.6 kmh 29.69 in1005.4 mb 0.19 in4.8 mm 0.14 in3.6 mm 0.81 in20.6 mm
05:05 AM 54.4°F12.4°C 51.0°F10.6°C 89% 6.0 mph ESE9.7 kmh ESE 21.0 mph33.8 kmh 29.68 in1005.1 mb 0.24 in6.1 mm 0.60 in15.2 mm 0.83 in21.1 mm
05:10 AM 54.5°F12.5°C 51.0°F10.6°C 89% 4.0 mph SSE6.4 kmh SSE 16.0 mph25.7 kmh 29.68 in1005.1 mb 0.12 in3.0 mm 0.00 in0.0 mm 0.84 in21.3 mm
05:15 AM 54.4°F12.4°C 51.0°F10.6°C 89% 2.0 mph SE3.2 kmh SE 16.0 mph25.7 kmh 29.68 in1005.1 mb 0.18 in4.6 mm 0.72 in18.3 mm 0.85 in21.6 mm
05:20 AM 54.4°F12.4°C 51.0°F10.6°C 88% 14.0 mph S22.5 kmh S 25.0 mph40.2 kmh 29.67 in1004.7 mb 0.74 in18.8 mm 6.72 in170.7 mm 0.88 in22.4 mm
05:25 AM 54.5°F12.5°C 51.0°F10.6°C 89% 4.0 mph W6.4 kmh W 25.0 mph40.2 kmh 29.66 in1004.4 mb 0.31 in7.9 mm 0.00 in0.0 mm 0.92 in23.4 mm
05:30 AM 54.5°F12.5°C 51.0°F10.6°C 89% 5.0 mph ESE8.0 kmh ESE 23.0 mph37.0 kmh 29.66 in1004.4 mb 0.19 in4.8 mm 0.00 in0.0 mm 0.94 in23.9 mm
05:35 AM 54.6°F12.6°C 52.0°F11.1°C 89% 6.0 mph S9.7 kmh S 20.0 mph32.2 kmh 29.65 in1004.1 mb 0.16 in4.1 mm 0.00 in0.0 mm 0.95 in24.1 mm
05:40 AM 54.9°F12.7°C 52.0°F11.1°C 89% 7.0 mph S11.3 kmh S 30.0 mph48.3 kmh 29.65 in1004.1 mb 0.09 in2.3 mm 0.00 in0.0 mm 0.95 in24.1 mm
05:45 AM 55.3°F12.9°C 52.0°F11.1°C 89% 11.0 mph SSE17.7 kmh SSE 23.0 mph37.0 kmh 29.65 in1004.1 mb 0.15 in3.8 mm 0.72 in18.3 mm 0.97 in24.6 mm
05:50 AM 55.4°F13.0°C 52.0°F11.1°C 89% 5.0 mph S8.0 kmh S 23.0 mph37.0 kmh 29.64 in1003.7 mb 0.15 in3.8 mm 0.00 in0.0 mm 0.98 in24.9 mm
05:55 AM 55.5°F13.1°C 52.0°F11.1°C 89% 9.0 mph SSE14.5 kmh SSE 25.0 mph40.2 kmh 29.64 in1003.7 mb 0.17 in4.3 mm 0.24 in6.1 mm 0.99 in25.1 mm
06:00 AM 55.5°F13.1°C 52.0°F11.1°C 89% 5.0 mph SE8.0 kmh SE 25.0 mph40.2 kmh 29.64 in1003.7 mb 0.09 in2.3 mm 0.00 in0.0 mm 1.00 in25.4 mm
06:05 AM 55.5°F13.1°C 52.0°F11.1°C 89% 12.0 mph S19.3 kmh S 23.0 mph37.0 kmh 29.63 in1003.4 mb 0.13 in3.3 mm 0.48 in12.2 mm 1.01 in25.7 mm
06:10 AM 55.5°F13.1°C 52.0°F11.1°C 89% 18.0 mph SE29.0 kmh SE 22.0 mph35.4 kmh 29.63 in1003.4 mb 0.10 in2.5 mm 0.00 in0.0 mm 1.02 in25.9 mm
06:15 AM 55.3°F12.9°C 52.0°F11.1°C 88% 5.0 mph SSE8.0 kmh SSE 22.0 mph35.4 kmh 29.63 in1003.4 mb 0.11 in2.8 mm 0.12 in3.0 mm 1.02 in25.9 mm
06:20 AM 55.2°F12.9°C 52.0°F11.1°C 89% 6.0 mph SE9.7 kmh SE 18.0 mph29.0 kmh 29.62 in1003.0 mb 0.11 in2.8 mm 0.00 in0.0 mm 1.03 in26.2 mm
06:25 AM 55.1°F12.8°C 52.0°F11.1°C 89% 6.0 mph S9.7 kmh S 19.0 mph30.6 kmh 29.61 in1002.7 mb 0.17 in4.3 mm 0.72 in18.3 mm 1.05 in26.7 mm
06:30 AM 55.0°F12.8°C 52.0°F11.1°C 89% 6.0 mph SSE9.7 kmh SSE 19.0 mph30.6 kmh 29.61 in1002.7 mb 0.15 in3.8 mm 0.00 in0.0 mm 1.06 in26.9 mm
06:35 AM 55.0°F12.8°C 52.0°F11.1°C 89% 5.0 mph S8.0 kmh S 14.0 mph22.5 kmh 29.61 in1002.7 mb 0.15 in3.8 mm 0.00 in0.0 mm 1.07 in27.2 mm
06:40 AM 55.0°F12.8°C 52.0°F11.1°C 89% 1.0 mph SE1.6 kmh SE 15.0 mph24.1 kmh 29.60 in1002.4 mb 0.09 in2.3 mm 0.00 in0.0 mm 1.08 in27.4 mm
06:45 AM 55.1°F12.8°C 52.0°F11.1°C 89% 2.0 mph SE3.2 kmh SE 19.0 mph30.6 kmh 29.60 in1002.4 mb 0.11 in2.8 mm 0.24 in6.1 mm 1.09 in27.7 mm
06:50 AM 55.1°F12.8°C 52.0°F11.1°C 89% 4.0 mph ESE6.4 kmh ESE 19.0 mph30.6 kmh 29.59 in1002.0 mb 0.11 in2.8 mm 0.00 in0.0 mm 1.09 in27.7 mm
06:55 AM 55.1°F12.8°C 52.0°F11.1°C 89% 1.0 mph SE1.6 kmh SE 14.0 mph22.5 kmh 29.59 in1002.0 mb 0.09 in2.3 mm 0.00 in0.0 mm 1.10 in27.9 mm
07:00 AM 55.2°F12.9°C 52.0°F11.1°C 89% 8.0 mph SSE12.9 kmh SSE 14.0 mph22.5 kmh 29.59 in1002.0 mb 0.10 in2.5 mm 0.01 in0.3 mm 1.11 in28.2 mm
07:05 AM 55.2°F12.9°C 52.0°F11.1°C 89% 7.0 mph SE11.3 kmh SE 13.0 mph20.9 kmh 29.59 in1002.0 mb 0.10 in2.5 mm 0.00 in0.0 mm 1.12 in28.4 mm
07:10 AM 55.3°F12.9°C 52.0°F11.1°C 89% 1.0 mph SE1.6 kmh SE 13.0 mph20.9 kmh 29.58 in1001.7 mb 0.21 in5.3 mm 1.32 in33.5 mm 1.14 in29.0 mm
07:15 AM 55.5°F13.1°C 52.0°F11.1°C 89% 4.0 mph SSE6.4 kmh SSE 12.0 mph19.3 kmh 29.58 in1001.7 mb 0.13 in3.3 mm 0.00 in0.0 mm 1.15 in29.2 mm
07:20 AM 55.8°F13.2°C 53.0°F11.7°C 89% 5.0 mph E8.0 kmh E 12.0 mph19.3 kmh 29.58 in1001.7 mb 0.10 in2.5 mm 0.00 in0.0 mm 1.15 in29.2 mm
07:25 AM 56.2°F13.4°C 53.0°F11.7°C 89% 7.0 mph E11.3 kmh E 13.0 mph20.9 kmh 29.57 in1001.4 mb 0.08 in2.0 mm 0.00 in0.0 mm 1.16 in29.5 mm
07:30 AM 56.5°F13.6°C 53.0°F11.7°C 89% 4.0 mph S6.4 kmh S 16.0 mph25.7 kmh 29.57 in1001.4 mb 0.10 in2.5 mm 0.24 in6.1 mm 1.17 in29.7 mm
07:35 AM 56.8°F13.8°C 54.0°F12.2°C 89% 2.0 mph S3.2 kmh S 18.0 mph29.0 kmh 29.57 in1001.4 mb 0.12 in3.0 mm 0.24 in6.1 mm 1.18 in30.0 mm
07:40 AM 57.0°F13.9°C 54.0°F12.2°C 89% 7.0 mph SSW11.3 kmh SSW 18.0 mph29.0 kmh 29.57 in1001.4 mb 0.14 in3.6 mm 0.24 in6.1 mm 1.19 in30.2 mm
07:45 AM 57.1°F13.9°C 54.0°F12.2°C 89% 1.0 mph S1.6 kmh S 14.0 mph22.5 kmh 29.56 in1001.0 mb 0.09 in2.3 mm 0.00 in0.0 mm 1.20 in30.5 mm
07:50 AM 57.2°F14.0°C 54.0°F12.2°C 89% 2.0 mph SSE3.2 kmh SSE 14.0 mph22.5 kmh 29.56 in1001.0 mb 0.11 in2.8 mm 0.24 in6.1 mm 1.21 in30.7 mm
07:55 AM 57.3°F14.1°C 54.0°F12.2°C 89% 7.0 mph S11.3 kmh S 13.0 mph20.9 kmh 29.56 in1001.0 mb 0.09 in2.3 mm 0.00 in0.0 mm 1.21 in30.7 mm
08:00 AM 57.3°F14.1°C 54.0°F12.2°C 89% 11.0 mph S17.7 kmh S 13.0 mph20.9 kmh 29.55 in1000.7 mb 0.07 in1.8 mm 0.00 in0.0 mm 1.22 in31.0 mm
08:05 AM 57.4°F14.1°C 54.0°F12.2°C 89% 5.0 mph SE8.0 kmh SE 13.0 mph20.9 kmh 29.55 in1000.7 mb 0.10 in2.5 mm 0.36 in9.1 mm 1.23 in31.2 mm
08:10 AM 57.6°F14.2°C 54.0°F12.2°C 89% 6.0 mph S9.7 kmh S 11.0 mph17.7 kmh 29.54 in1000.3 mb 0.09 in2.3 mm 0.00 in0.0 mm 1.23 in31.2 mm
08:15 AM 57.7°F14.3°C 55.0°F12.8°C 89% 6.0 mph SSE9.7 kmh SSE 11.0 mph17.7 kmh 29.54 in1000.3 mb 0.08 in2.0 mm 0.00 in0.0 mm 1.24 in31.5 mm
08:20 AM 57.9°F14.4°C 55.0°F12.8°C 89% 7.0 mph S11.3 kmh S 11.0 mph17.7 kmh 29.53 in1000.0 mb 0.09 in2.3 mm 0.12 in3.0 mm 1.25 in31.8 mm
08:25 AM 58.0°F14.4°C 55.0°F12.8°C 89% 2.0 mph SE3.2 kmh SE 10.0 mph16.1 kmh 29.53 in1000.0 mb 0.14 in3.6 mm 0.60 in15.2 mm 1.26 in32.0 mm
08:30 AM 58.2°F14.6°C 55.0°F12.8°C 89% 7.0 mph S11.3 kmh S 10.0 mph16.1 kmh 29.53 in1000.0 mb 0.13 in3.3 mm 0.00 in0.0 mm 1.27 in32.3 mm
08:35 AM 58.2°F14.6°C 55.0°F12.8°C 89% 3.0 mph S4.8 kmh S 13.0 mph20.9 kmh 29.52 in999.7 mb 0.23 in5.8 mm 1.20 in30.5 mm 1.29 in32.8 mm
08:40 AM 58.4°F14.7°C 55.0°F12.8°C 89% 5.0 mph S8.0 kmh S 9.0 mph14.5 kmh 29.51 in999.3 mb 0.09 in2.3 mm 0.00 in0.0 mm 1.30 in33.0 mm
08:45 AM 58.5°F14.7°C 55.0°F12.8°C 89% 2.0 mph SE3.2 kmh SE 11.0 mph17.7 kmh 29.51 in999.3 mb 0.21 in5.3 mm 1.44 in36.6 mm 1.31 in33.3 mm
08:50 AM 58.7°F14.8°C 56.0°F13.3°C 89% 7.0 mph SSE11.3 kmh SSE 11.0 mph17.7 kmh 29.51 in999.3 mb 0.15 in3.8 mm 0.00 in0.0 mm 1.32 in33.5 mm
08:55 AM 58.9°F14.9°C 56.0°F13.3°C 89% 4.0 mph ESE6.4 kmh ESE 12.0 mph19.3 kmh 29.50 in999.0 mb 0.40 in10.2 mm 3.00 in76.2 mm 1.35 in34.3 mm
09:00 AM 59.0°F15.0°C 56.0°F13.3°C 89% Calm Calm 12.0 mph19.3 kmh 29.49 in998.6 mb 0.17 in4.3 mm 0.00 in0.0 mm 1.36 in34.5 mm
09:05 AM 59.2°F15.1°C 56.0°F13.3°C 89% 1.0 mph SSE1.6 kmh SSE 11.0 mph17.7 kmh 29.49 in998.6 mb 0.08 in2.0 mm 0.00 in0.0 mm 1.36 in34.5 mm
09:10 AM 59.5°F15.3°C 56.0°F13.3°C 89% 6.0 mph S9.7 kmh S 11.0 mph17.7 kmh 29.48 in998.3 mb 0.06 in1.5 mm 0.00 in0.0 mm 1.37 in34.8 mm
09:15 AM 59.7°F15.4°C 57.0°F13.9°C 89% 3.0 mph SSE4.8 kmh SSE 12.0 mph19.3 kmh 29.48 in998.3 mb 0.36 in9.1 mm 3.60 in91.4 mm 1.39 in35.3 mm
09:20 AM 60.0°F15.6°C 57.0°F13.9°C 89% 6.0 mph S9.7 kmh S 15.0 mph24.1 kmh 29.47 in998.0 mb 0.10 in2.5 mm 0.00 in0.0 mm 1.40 in35.6 mm
09:25 AM 60.2°F15.7°C 57.0°F13.9°C 89% 10.0 mph S16.1 kmh S 15.0 mph24.1 kmh 29.46 in997.6 mb 0.34 in8.6 mm 2.88 in73.2 mm 1.42 in36.1 mm
09:30 AM 60.7°F15.9°C 58.0°F14.4°C 89% 12.0 mph SE19.3 kmh SE 15.0 mph24.1 kmh 29.46 in997.6 mb 0.20 in5.1 mm 0.00 in0.0 mm 1.43 in36.3 mm
09:35 AM 61.2°F16.2°C 58.0°F14.4°C 90% 9.0 mph S14.5 kmh S 24.0 mph38.6 kmh 29.45 in997.3 mb 0.10 in2.5 mm 0.00 in0.0 mm 1.44 in36.6 mm
09:40 AM 61.4°F16.3°C 58.0°F14.4°C 89% 14.0 mph SE22.5 kmh SE 19.0 mph30.6 kmh 29.45 in997.3 mb 0.09 in2.3 mm 0.00 in0.0 mm 1.44 in36.6 mm
09:45 AM 61.3°F16.3°C 58.0°F14.4°C 89% 13.0 mph SSW20.9 kmh SSW 27.0 mph43.5 kmh 29.43 in996.6 mb 0.05 in1.3 mm 0.00 in0.0 mm 1.44 in36.6 mm
09:50 AM 61.2°F16.2°C 58.0°F14.4°C 89% 5.0 mph SE8.0 kmh SE 27.0 mph43.5 kmh 29.43 in996.6 mb 0.04 in1.0 mm 0.00 in0.0 mm 1.45 in36.8 mm
09:55 AM 60.9°F16.1°C 58.0°F14.4°C 89% 7.0 mph SSW11.3 kmh SSW 22.0 mph35.4 kmh 29.42 in996.3 mb 0.36 in9.1 mm 3.84 in97.5 mm 1.47 in37.3 mm
10:00 AM 60.7°F15.9°C 58.0°F14.4°C 89% 15.0 mph SSE24.1 kmh SSE 20.0 mph32.2 kmh 29.42 in996.3 mb 0.15 in3.8 mm 0.00 in0.0 mm 1.48 in37.6 mm
10:05 AM 60.7°F15.9°C 58.0°F14.4°C 89% 1.0 mph S1.6 kmh S 19.0 mph30.6 kmh 29.41 in995.9 mb 0.13 in3.3 mm 0.00 in0.0 mm 1.50 in38.1 mm
10:10 AM 60.5°F15.8°C 57.0°F13.9°C 89% 11.0 mph SSW17.7 kmh SSW 19.0 mph30.6 kmh 29.40 in995.6 mb 0.11 in2.8 mm 0.00 in0.0 mm 1.50 in38.1 mm
10:15 AM 60.4°F15.8°C 57.0°F13.9°C 89% 9.0 mph S14.5 kmh S 20.0 mph32.2 kmh 29.40 in995.6 mb 0.06 in1.5 mm 0.00 in0.0 mm 1.50 in38.1 mm
10:20 AM 60.2°F15.7°C 57.0°F13.9°C 89% 11.0 mph S17.7 kmh S 20.0 mph32.2 kmh 29.39 in995.3 mb 0.06 in1.5 mm 0.00 in0.0 mm 1.51 in38.4 mm
10:25 AM 60.1°F15.6°C 57.0°F13.9°C 89% 3.0 mph SW4.8 kmh SW 14.0 mph22.5 kmh 29.39 in995.3 mb 0.06 in1.5 mm 0.00 in0.0 mm 1.51 in38.4 mm
10:30 AM 59.9°F15.5°C 57.0°F13.9°C 89% 4.0 mph SSW6.4 kmh SSW 18.0 mph29.0 kmh 29.38 in994.9 mb 0.04 in1.0 mm 0.00 in0.0 mm 1.51 in38.4 mm
10:35 AM 59.7°F15.4°C 57.0°F13.9°C 89% 10.0 mph S16.1 kmh S 19.0 mph30.6 kmh 29.38 in994.9 mb 0.00 in0.0 mm 0.00 in0.0 mm 1.51 in38.4 mm
10:40 AM 59.4°F15.2°C 56.0°F13.3°C 89% 16.0 mph S25.7 kmh S 21.0 mph33.8 kmh 29.36 in994.2 mb 0.00 in0.0 mm 0.00 in0.0 mm 1.52 in38.6 mm
10:45 AM 59.2°F15.1°C 56.0°F13.3°C 89% 15.0 mph SSE24.1 kmh SSE 25.0 mph40.2 kmh 29.36 in994.2 mb 0.00 in0.0 mm 0.00 in0.0 mm 1.52 in38.6 mm
10:50 AM 58.9°F14.9°C 55.0°F12.8°C 88% 6.0 mph SSE9.7 kmh SSE 25.0 mph40.2 kmh 29.36 in994.2 mb 0.00 in0.0 mm 0.00 in0.0 mm 1.52 in38.6 mm
10:55 AM 58.8°F14.9°C 56.0°F13.3°C 89% 6.0 mph S9.7 kmh S 19.0 mph30.6 kmh 29.36 in994.2 mb 0.00 in0.0 mm 0.00 in0.0 mm 1.52 in38.6 mm
11:00 AM 58.6°F14.8°C 55.0°F12.8°C 89% 13.0 mph SSW20.9 kmh SSW 20.0 mph32.2 kmh 29.36 in994.2 mb 0.00 in0.0 mm 0.00 in0.0 mm 1.52 in38.6 mm
11:05 AM 58.5°F14.7°C 55.0°F12.8°C 89% 9.0 mph S14.5 kmh S 20.0 mph32.2 kmh 29.36 in994.2 mb 0.00 in0.0 mm 0.00 in0.0 mm 1.52 in38.6 mm
11:10 AM 58.6°F14.8°C 55.0°F12.8°C 89% 12.0 mph S19.3 kmh S 20.0 mph32.2 kmh 29.36 in994.2 mb 0.00 in0.0 mm 0.00 in0.0 mm 1.52 in38.6 mm
11:15 AM 58.6°F14.8°C 55.0°F12.8°C 89% 6.0 mph S9.7 kmh S 21.0 mph33.8 kmh 29.36 in994.2 mb 0.00 in0.0 mm 0.00 in0.0 mm 1.52 in38.6 mm
11:20 AM 58.6°F14.8°C 55.0°F12.8°C 89% 18.0 mph S29.0 kmh S 23.0 mph37.0 kmh 29.36 in994.2 mb 0.00 in0.0 mm 0.00 in0.0 mm 1.52 in38.6 mm
11:25 AM 58.7°F14.8°C 56.0°F13.3°C 89% 6.0 mph SSW9.7 kmh SSW 23.0 mph37.0 kmh 29.36 in994.2 mb 0.00 in0.0 mm 0.00 in0.0 mm 1.52 in38.6 mm
11:30 AM 58.9°F14.9°C 56.0°F13.3°C 89% 8.0 mph SW12.9 kmh SW 18.0 mph29.0 kmh 29.36 in994.2 mb 0.00 in0.0 mm 0.00 in0.0 mm 1.52 in38.6 mm
11:35 AM 59.0°F15.0°C 56.0°F13.3°C 89% 6.0 mph SW9.7 kmh SW 18.0 mph29.0 kmh 29.36 in994.2 mb 0.00 in0.0 mm 0.00 in0.0 mm 1.52 in38.6 mm
11:40 AM 59.2°F15.1°C 56.0°F13.3°C 89% 7.0 mph SSE11.3 kmh SSE 20.0 mph32.2 kmh 29.36 in994.2 mb 0.00 in0.0 mm 0.00 in0.0 mm 1.52 in38.6 mm
11:45 AM 59.5°F15.3°C 56.0°F13.3°C 89% 4.0 mph S6.4 kmh S 20.0 mph32.2 kmh 29.36 in994.2 mb 0.00 in0.0 mm 0.00 in0.0 mm 1.52 in38.6 mm
11:50 AM 59.6°F15.3°C 56.0°F13.3°C 89% 5.0 mph SW8.0 kmh SW 15.0 mph24.1 kmh 29.36 in994.2 mb 0.00 in0.0 mm 0.00 in0.0 mm 1.52 in38.6 mm
11:55 AM 59.7°F15.4°C 57.0°F13.9°C 89% 6.0 mph SSW9.7 kmh SSW 20.0 mph32.2 kmh 29.36 in994.2 mb 0.00 in0.0 mm 0.00 in0.0 mm 1.52 in38.6 mm
12:00 PM 59.7°F15.4°C 57.0°F13.9°C 89% 1.0 mph SW1.6 kmh SW 23.0 mph37.0 kmh 29.36 in994.2 mb 0.00 in0.0 mm 0.00 in0.0 mm 1.52 in38.6 mm
12:05 PM 59.6°F15.3°C 56.0°F13.3°C 89% 15.0 mph S24.1 kmh S 21.0 mph33.8 kmh 29.35 in993.9 mb 0.00 in0.0 mm 0.00 in0.0 mm 1.52 in38.6 mm
12:10 PM 59.6°F15.3°C 56.0°F13.3°C 89% 9.0 mph SW14.5 kmh SW 21.0 mph33.8 kmh 29.34 in993.6 mb 0.00 in0.0 mm 0.00 in0.0 mm 1.52 in38.6 mm
12:15 PM 59.6°F15.3°C 56.0°F13.3°C 89% 5.0 mph SSW8.0 kmh SSW 18.0 mph29.0 kmh 29.34 in993.6 mb 0.00 in0.0 mm 0.00 in0.0 mm 1.52 in38.6 mm
12:20 PM 59.6°F15.3°C 56.0°F13.3°C 89% 4.0 mph SE6.4 kmh SE 15.0 mph24.1 kmh 29.33 in993.2 mb 0.00 in0.0 mm 0.00 in0.0 mm 1.52 in38.6 mm
12:25 PM 59.6°F15.3°C 56.0°F13.3°C 89% 5.0 mph WSW8.0 kmh WSW 15.0 mph24.1 kmh 29.33 in993.2 mb 0.00 in0.0 mm 0.00 in0.0 mm 1.52 in38.6 mm
12:30 PM 59.7°F15.4°C 57.0°F13.9°C 89% 1.0 mph S1.6 kmh S 13.0 mph20.9 kmh 29.32 in992.9 mb 0.00 in0.0 mm 0.00 in0.0 mm 1.52 in38.6 mm
12:35 PM 59.6°F15.3°C 56.0°F13.3°C 89% 12.0 mph SW19.3 kmh SW 13.0 mph20.9 kmh 29.32 in992.9 mb 0.00 in0.0 mm 0.00 in0.0 mm 1.52 in38.6 mm
12:40 PM 59.6°F15.3°C 56.0°F13.3°C 89% 5.0 mph SSE8.0 kmh SSE 13.0 mph20.9 kmh 29.32 in992.9 mb 0.00 in0.0 mm 0.00 in0.0 mm 1.52 in38.6 mm
12:45 PM 59.6°F15.3°C 56.0°F13.3°C 89% 4.0 mph SSE6.4 kmh SSE 15.0 mph24.1 kmh 29.32 in992.9 mb 0.00 in0.0 mm 0.00 in0.0 mm 1.52 in38.6 mm
12:50 PM 59.7°F15.4°C 57.0°F13.9°C 89% 6.0 mph S9.7 kmh S 15.0 mph24.1 kmh 29.32 in992.9 mb 0.00 in0.0 mm 0.00 in0.0 mm 1.52 in38.6 mm
12:55 PM 59.7°F15.4°C 57.0°F13.9°C 89% 4.0 mph SW6.4 kmh SW 14.0 mph22.5 kmh 29.32 in992.9 mb 0.00 in0.0 mm 0.00 in0.0 mm 1.52 in38.6 mm
01:00 PM 59.8°F15.4°C 57.0°F13.9°C 89% 3.0 mph S4.8 kmh S 14.0 mph22.5 kmh 29.32 in992.9 mb 0.00 in0.0 mm 0.00 in0.0 mm 1.52 in38.6 mm
01:05 PM 59.7°F15.4°C 57.0°F13.9°C 89% 8.0 mph SW12.9 kmh SW 13.0 mph20.9 kmh 29.32 in992.9 mb 0.00 in0.0 mm 0.00 in0.0 mm 1.52 in38.6 mm
01:10 PM 59.8°F15.4°C 57.0°F13.9°C 89% 5.0 mph SW8.0 kmh SW 13.0 mph20.9 kmh 29.32 in992.9 mb 0.00 in0.0 mm 0.00 in0.0 mm 1.52 in38.6 mm
01:15 PM 59.8°F15.4°C 57.0°F13.9°C 89% 4.0 mph SSW6.4 kmh SSW 11.0 mph17.7 kmh 29.32 in992.9 mb 0.00 in0.0 mm 0.00 in0.0 mm 1.52 in38.6 mm
01:20 PM 59.9°F15.5°C 57.0°F13.9°C 89% 6.0 mph SSE9.7 kmh SSE 11.0 mph17.7 kmh 29.32 in992.9 mb 0.00 in0.0 mm 0.00 in0.0 mm 1.52 in38.6 mm
01:25 PM 59.9°F15.5°C 57.0°F13.9°C 89% 5.0 mph S8.0 kmh S 10.0 mph16.1 kmh 29.31 in992.6 mb 0.00 in0.0 mm 0.00 in0.0 mm 1.52 in38.6 mm
01:30 PM 59.9°F15.5°C 57.0°F13.9°C 89% 6.0 mph WSW9.7 kmh WSW 9.0 mph14.5 kmh 29.30 in992.2 mb 0.00 in0.0 mm 0.00 in0.0 mm 1.52 in38.6 mm
01:35 PM 60.0°F15.6°C 57.0°F13.9°C 89% 5.0 mph S8.0 kmh S 9.0 mph14.5 kmh 29.30 in992.2 mb 0.00 in0.0 mm 0.00 in0.0 mm 1.52 in38.6 mm
01:40 PM 60.1°F15.6°C 57.0°F13.9°C 89% 1.0 mph S1.6 kmh S 10.0 mph16.1 kmh 29.30 in992.2 mb 0.00 in0.0 mm 0.00 in0.0 mm 1.52 in38.6 mm
01:45 PM 60.1°F15.6°C 57.0°F13.9°C 89% 4.0 mph SSE6.4 kmh SSE 10.0 mph16.1 kmh 29.30 in992.2 mb 0.00 in0.0 mm 0.00 in0.0 mm 1.52 in38.6 mm
01:50 PM 60.0°F15.6°C 57.0°F13.9°C 89% 4.0 mph S6.4 kmh S 9.0 mph14.5 kmh 29.29 in991.9 mb 0.00 in0.0 mm 0.00 in0.0 mm 1.52 in38.6 mm
01:55 PM 59.8°F15.4°C 57.0°F13.9°C 89% 5.0 mph SSE8.0 kmh SSE 11.0 mph17.7 kmh 29.29 in991.9 mb 0.00 in0.0 mm 0.00 in0.0 mm 1.52 in38.6 mm
02:00 PM 59.6°F15.3°C 56.0°F13.3°C 89% 2.0 mph S3.2 kmh S 11.0 mph17.7 kmh 29.29 in991.9 mb 0.00 in0.0 mm 0.00 in0.0 mm 1.52 in38.6 mm
02:05 PM 59.4°F15.2°C 56.0°F13.3°C 89% 6.0 mph S9.7 kmh S 11.0 mph17.7 kmh 29.30 in992.2 mb 0.00 in0.0 mm 0.00 in0.0 mm 1.52 in38.6 mm
02:10 PM 59.2°F15.1°C 56.0°F13.3°C 89% 5.0 mph SE8.0 kmh SE 11.0 mph17.7 kmh 29.29 in991.9 mb 0.00 in0.0 mm 0.00 in0.0 mm 1.52 in38.6 mm
02:15 PM 59.1°F15.1°C 56.0°F13.3°C 89% 4.0 mph SW6.4 kmh SW 11.0 mph17.7 kmh 29.29 in991.9 mb 0.00 in0.0 mm 0.00 in0.0 mm 1.52 in38.6 mm
02:20 PM 59.0°F15.0°C 56.0°F13.3°C 89% 2.0 mph S3.2 kmh S 11.0 mph17.7 kmh 29.28 in991.5 mb 0.00 in0.0 mm 0.00 in0.0 mm 1.52 in38.6 mm
02:25 PM 58.8°F14.9°C 56.0°F13.3°C 89% 5.0 mph S8.0 kmh S 11.0 mph17.7 kmh 29.28 in991.5 mb 0.00 in0.0 mm 0.00 in0.0 mm 1.52 in38.6 mm
02:30 PM 58.8°F14.9°C 56.0°F13.3°C 89% 4.0 mph S6.4 kmh S 11.0 mph17.7 kmh 29.28 in991.5 mb 0.00 in0.0 mm 0.00 in0.0 mm 1.52 in38.6 mm
02:35 PM 58.7°F14.8°C 56.0°F13.3°C 89% 4.0 mph S6.4 kmh S 10.0 mph16.1 kmh 29.27 in991.2 mb 0.00 in0.0 mm 0.00 in0.0 mm 1.52 in38.6 mm
02:40 PM 58.5°F14.7°C 55.0°F12.8°C 89% 5.0 mph S8.0 kmh S 11.0 mph17.7 kmh 29.27 in991.2 mb 0.00 in0.0 mm 0.00 in0.0 mm 1.52 in38.6 mm
02:45 PM 58.3°F14.6°C 55.0°F12.8°C 89% 8.0 mph S12.9 kmh S 13.0 mph20.9 kmh 29.27 in991.2 mb 0.00 in0.0 mm 0.00 in0.0 mm 1.52 in38.6 mm
02:50 PM 58.1°F14.5°C 55.0°F12.8°C 89% 3.0 mph SSE4.8 kmh SSE 14.0 mph22.5 kmh 29.27 in991.2 mb 0.00 in0.0 mm 0.00 in0.0 mm 1.52 in38.6 mm
02:55 PM 58.0°F14.4°C 55.0°F12.8°C 89% 2.0 mph SSE3.2 kmh SSE 14.0 mph22.5 kmh 29.27 in991.2 mb 0.00 in0.0 mm 0.00 in0.0 mm 1.52 in38.6 mm
03:00 PM 57.9°F14.4°C 55.0°F12.8°C 89% 2.0 mph E3.2 kmh E 11.0 mph17.7 kmh 29.27 in991.2 mb 0.00 in0.0 mm 0.00 in0.0 mm 1.52 in38.6 mm
03:05 PM 57.7°F14.3°C 55.0°F12.8°C 89% 6.0 mph SW9.7 kmh SW 15.0 mph24.1 kmh 29.27 in991.2 mb 0.00 in0.0 mm 0.00 in0.0 mm 1.52 in38.6 mm
03:10 PM 57.7°F14.3°C 55.0°F12.8°C 89% 8.0 mph SW12.9 kmh SW 15.0 mph24.1 kmh 29.27 in991.2 mb 0.00 in0.0 mm 0.00 in0.0 mm 1.52 in38.6 mm
03:15 PM 57.7°F14.3°C 55.0°F12.8°C 89% 4.0 mph SSE6.4 kmh SSE 14.0 mph22.5 kmh 29.27 in991.2 mb 0.00 in0.0 mm 0.00 in0.0 mm 1.52 in38.6 mm
03:20 PM 57.7°F14.3°C 55.0°F12.8°C 89% 6.0 mph S9.7 kmh S 12.0 mph19.3 kmh 29.27 in991.2 mb 0.00 in0.0 mm 0.00 in0.0 mm 1.52 in38.6 mm
03:25 PM 57.7°F14.3°C 55.0°F12.8°C 89% 5.0 mph S8.0 kmh S 19.0 mph30.6 kmh 29.27 in991.2 mb 0.00 in0.0 mm 0.00 in0.0 mm 1.52 in38.6 mm
03:30 PM 57.7°F14.3°C 55.0°F12.8°C 89% 7.0 mph SSW11.3 kmh SSW 19.0 mph30.6 kmh 29.26 in990.9 mb 0.00 in0.0 mm 0.00 in0.0 mm 1.53 in38.9 mm
03:35 PM 57.8°F14.3°C 55.0°F12.8°C 89% 9.0 mph S14.5 kmh S 13.0 mph20.9 kmh 29.26 in990.9 mb 0.00 in0.0 mm 0.00 in0.0 mm 1.53 in38.9 mm
03:40 PM 57.8°F14.3°C 55.0°F12.8°C 89% 6.0 mph S9.7 kmh S 15.0 mph24.1 kmh 29.26 in990.9 mb 0.00 in0.0 mm 0.00 in0.0 mm 1.53 in38.9 mm
03:45 PM 57.9°F14.4°C 55.0°F12.8°C 89% 7.0 mph S11.3 kmh S 15.0 mph24.1 kmh 29.25 in990.5 mb 0.00 in0.0 mm 0.00 in0.0 mm 1.53 in38.9 mm
03:50 PM 57.9°F14.4°C 55.0°F12.8°C 89% 9.0 mph SW14.5 kmh SW 13.0 mph20.9 kmh 29.25 in990.5 mb 0.00 in0.0 mm 0.00 in0.0 mm 1.53 in38.9 mm
03:55 PM 58.0°F14.4°C 55.0°F12.8°C 89% 9.0 mph S14.5 kmh S 18.0 mph29.0 kmh 29.25 in990.5 mb 0.00 in0.0 mm 0.00 in0.0 mm 1.53 in38.9 mm
04:00 PM 58.1°F14.5°C 55.0°F12.8°C 89% 6.0 mph S9.7 kmh S 18.0 mph29.0 kmh 29.25 in990.5 mb 0.00 in0.0 mm 0.00 in0.0 mm 1.53 in38.9 mm
04:05 PM 58.2°F14.6°C 55.0°F12.8°C 89% 10.0 mph SSW16.1 kmh SSW 15.0 mph24.1 kmh 29.26 in990.9 mb 0.00 in0.0 mm 0.00 in0.0 mm 1.53 in38.9 mm
04:10 PM 58.4°F14.7°C 55.0°F12.8°C 89% 9.0 mph SSW14.5 kmh SSW 15.0 mph24.1 kmh 29.25 in990.5 mb 0.00 in0.0 mm 0.00 in0.0 mm 1.53 in38.9 mm
04:15 PM 58.6°F14.8°C 55.0°F12.8°C 89% 9.0 mph S14.5 kmh S 15.0 mph24.1 kmh 29.25 in990.5 mb 0.00 in0.0 mm 0.00 in0.0 mm 1.53 in38.9 mm
04:20 PM 58.7°F14.8°C 56.0°F13.3°C 89% 6.0 mph SW9.7 kmh SW 14.0 mph22.5 kmh 29.25 in990.5 mb 0.00 in0.0 mm 0.00 in0.0 mm 1.53 in38.9 mm
04:25 PM 58.7°F14.8°C 56.0°F13.3°C 89% 5.0 mph SE8.0 kmh SE 14.0 mph22.5 kmh 29.25 in990.5 mb 0.00 in0.0 mm 0.00 in0.0 mm 1.53 in38.9 mm
04:30 PM 58.6°F14.8°C 55.0°F12.8°C 89% 13.0 mph SSW20.9 kmh SSW 13.0 mph20.9 kmh 29.24 in990.2 mb 0.00 in0.0 mm 0.00 in0.0 mm 1.53 in38.9 mm
04:35 PM 58.6°F14.8°C 55.0°F12.8°C 89% 11.0 mph S17.7 kmh S 19.0 mph30.6 kmh 29.24 in990.2 mb 0.00 in0.0 mm 0.00 in0.0 mm 1.53 in38.9 mm
04:40 PM 58.5°F14.7°C 55.0°F12.8°C 89% 1.0 mph S1.6 kmh S 19.0 mph30.6 kmh 29.23 in989.8 mb 0.00 in0.0 mm 0.00 in0.0 mm 1.53 in38.9 mm
04:45 PM 58.3°F14.6°C 55.0°F12.8°C 89% 6.0 mph SW9.7 kmh SW 19.0 mph30.6 kmh 29.23 in989.8 mb 0.00 in0.0 mm 0.00 in0.0 mm 1.53 in38.9 mm
04:50 PM 58.2°F14.6°C 55.0°F12.8°C 89% 13.0 mph S20.9 kmh S 18.0 mph29.0 kmh 29.23 in989.8 mb 0.00 in0.0 mm 0.00 in0.0 mm 1.53 in38.9 mm
04:55 PM 58.2°F14.6°C 55.0°F12.8°C 89% 7.0 mph SSE11.3 kmh SSE 15.0 mph24.1 kmh 29.23 in989.8 mb 0.00 in0.0 mm 0.00 in0.0 mm 1.53 in38.9 mm
05:00 PM 58.1°F14.5°C 55.0°F12.8°C 89% 4.0 mph SSW6.4 kmh SSW 18.0 mph29.0 kmh 29.22 in989.5 mb 0.00 in0.0 mm 0.00 in0.0 mm 1.53 in38.9 mm
05:05 PM 58.2°F14.6°C 55.0°F12.8°C 89% 7.0 mph S11.3 kmh S 18.0 mph29.0 kmh 29.21 in989.2 mb 0.00 in0.0 mm 0.00 in0.0 mm 1.53 in38.9 mm
05:10 PM 58.1°F14.5°C 55.0°F12.8°C 89% 9.0 mph SE14.5 kmh SE 14.0 mph22.5 kmh 29.22 in989.5 mb 0.00 in0.0 mm 0.00 in0.0 mm 1.53 in38.9 mm
05:15 PM 58.1°F14.5°C 55.0°F12.8°C 89% 12.0 mph S19.3 kmh S 18.0 mph29.0 kmh 29.21 in989.2 mb 0.00 in0.0 mm 0.00 in0.0 mm 1.53 in38.9 mm
05:20 PM 58.2°F14.6°C 55.0°F12.8°C 89% 6.0 mph S9.7 kmh S 26.0 mph41.8 kmh 29.21 in989.2 mb 0.00 in0.0 mm 0.00 in0.0 mm 1.53 in38.9 mm
05:25 PM 58.2°F14.6°C 55.0°F12.8°C 89% 7.0 mph S11.3 kmh S 26.0 mph41.8 kmh 29.20 in988.8 mb 0.00 in0.0 mm 0.00 in0.0 mm 1.53 in38.9 mm
05:30 PM 58.4°F14.7°C 55.0°F12.8°C 89% 6.0 mph SW9.7 kmh SW 26.0 mph41.8 kmh 29.20 in988.8 mb 0.00 in0.0 mm 0.00 in0.0 mm 1.53 in38.9 mm
05:35 PM 58.5°F14.7°C 55.0°F12.8°C 89% 9.0 mph SSW14.5 kmh SSW 24.0 mph38.6 kmh 29.20 in988.8 mb 0.00 in0.0 mm 0.00 in0.0 mm 1.53 in38.9 mm
05:40 PM 58.7°F14.8°C 56.0°F13.3°C 89% 9.0 mph SSW14.5 kmh SSW 21.0 mph33.8 kmh 29.19 in988.5 mb 0.00 in0.0 mm 0.00 in0.0 mm 1.53 in38.9 mm
05:45 PM 58.8°F14.9°C 56.0°F13.3°C 89% 9.0 mph SSW14.5 kmh SSW 22.0 mph35.4 kmh 29.19 in988.5 mb 0.00 in0.0 mm 0.00 in0.0 mm 1.53 in38.9 mm
05:50 PM 58.9°F14.9°C 56.0°F13.3°C 89% 5.0 mph S8.0 kmh S 24.0 mph38.6 kmh 29.19 in988.5 mb 0.00 in0.0 mm 0.00 in0.0 mm 1.53 in38.9 mm
05:55 PM 59.0°F15.0°C 56.0°F13.3°C 89% 4.0 mph SSE6.4 kmh SSE 24.0 mph38.6 kmh 29.19 in988.5 mb 0.00 in0.0 mm 0.00 in0.0 mm 1.53 in38.9 mm
06:00 PM 59.0°F15.0°C 56.0°F13.3°C 89% 4.0 mph S6.4 kmh S 24.0 mph38.6 kmh 29.19 in988.5 mb 0.00 in0.0 mm 0.00 in0.0 mm 1.53 in38.9 mm
06:05 PM 59.0°F15.0°C 56.0°F13.3°C 89% 2.0 mph S3.2 kmh S 32.0 mph51.5 kmh 29.18 in988.1 mb 0.00 in0.0 mm 0.00 in0.0 mm 1.53 in38.9 mm
06:10 PM 59.0°F15.0°C 56.0°F13.3°C 89% 11.0 mph S17.7 kmh S 32.0 mph51.5 kmh 29.18 in988.1 mb 0.00 in0.0 mm 0.00 in0.0 mm 1.53 in38.9 mm
06:15 PM 58.9°F14.9°C 56.0°F13.3°C 89% 7.0 mph SW11.3 kmh SW 22.0 mph35.4 kmh 29.18 in988.1 mb 0.00 in0.0 mm 0.00 in0.0 mm 1.53 in38.9 mm
06:20 PM 58.8°F14.9°C 56.0°F13.3°C 89% 4.0 mph SW6.4 kmh SW 21.0 mph33.8 kmh 29.18 in988.1 mb 0.00 in0.0 mm 0.00 in0.0 mm 1.53 in38.9 mm
06:25 PM 58.7°F14.8°C 56.0°F13.3°C 89% 7.0 mph SW11.3 kmh SW 21.0 mph33.8 kmh 29.17 in987.8 mb 0.00 in0.0 mm 0.00 in0.0 mm 1.53 in38.9 mm
06:30 PM 58.6°F14.8°C 55.0°F12.8°C 89% 15.0 mph S24.1 kmh S 19.0 mph30.6 kmh 29.17 in987.8 mb 0.00 in0.0 mm 0.00 in0.0 mm 1.53 in38.9 mm
06:35 PM 58.6°F14.8°C 55.0°F12.8°C 89% 8.0 mph SW12.9 kmh SW 21.0 mph33.8 kmh 29.17 in987.8 mb 0.00 in0.0 mm 0.00 in0.0 mm 1.53 in38.9 mm
06:40 PM 58.8°F14.9°C 56.0°F13.3°C 89% 11.0 mph S17.7 kmh S 25.0 mph40.2 kmh 29.17 in987.8 mb 0.00 in0.0 mm 0.00 in0.0 mm 1.53 in38.9 mm
06:45 PM 59.0°F15.0°C 56.0°F13.3°C 89% 6.0 mph S9.7 kmh S 28.0 mph45.1 kmh 29.16 in987.5 mb 0.00 in0.0 mm 0.00 in0.0 mm 1.53 in38.9 mm
06:50 PM 59.2°F15.1°C 56.0°F13.3°C 89% 8.0 mph SW12.9 kmh SW 28.0 mph45.1 kmh 29.16 in987.5 mb 0.00 in0.0 mm 0.00 in0.0 mm 1.53 in38.9 mm
06:55 PM 59.3°F15.2°C 56.0°F13.3°C 89% 8.0 mph SSE12.9 kmh SSE 21.0 mph33.8 kmh 29.16 in987.5 mb 0.00 in0.0 mm 0.00 in0.0 mm 1.53 in38.9 mm
07:00 PM 59.5°F15.3°C 56.0°F13.3°C 89% 6.0 mph SSW9.7 kmh SSW 22.0 mph35.4 kmh 29.15 in987.1 mb 0.00 in0.0 mm 0.00 in0.0 mm 1.53 in38.9 mm
07:05 PM 59.5°F15.3°C 56.0°F13.3°C 89% 7.0 mph SSW11.3 kmh SSW 22.0 mph35.4 kmh 29.15 in987.1 mb 0.00 in0.0 mm 0.00 in0.0 mm 1.53 in38.9 mm
07:10 PM 59.5°F15.3°C 56.0°F13.3°C 89% 13.0 mph SE20.9 kmh SE 19.0 mph30.6 kmh 29.15 in987.1 mb 0.00 in0.0 mm 0.00 in0.0 mm 1.54 in39.1 mm
07:15 PM 59.5°F15.3°C 56.0°F13.3°C 89% 11.0 mph WSW17.7 kmh WSW 22.0 mph35.4 kmh 29.14 in986.8 mb 0.00 in0.0 mm 0.00 in0.0 mm 1.54 in39.1 mm
07:20 PM 59.5°F15.3°C 56.0°F13.3°C 89% Calm Calm 22.0 mph35.4 kmh 29.14 in986.8 mb 0.00 in0.0 mm 0.00 in0.0 mm 1.54 in39.1 mm
07:25 PM 59.3°F15.2°C 56.0°F13.3°C 89% 10.0 mph S16.1 kmh S 24.0 mph38.6 kmh 29.14 in986.8 mb 0.00 in0.0 mm 0.00 in0.0 mm 1.54 in39.1 mm
07:30 PM 59.2°F15.1°C 56.0°F13.3°C 89% 13.0 mph SW20.9 kmh SW 22.0 mph35.4 kmh 29.14 in986.8 mb 0.00 in0.0 mm 0.00 in0.0 mm 1.54 in39.1 mm
07:35 PM 59.1°F15.1°C 56.0°F13.3°C 89% 5.0 mph SSE8.0 kmh SSE 23.0 mph37.0 kmh 29.14 in986.8 mb 0.00 in0.0 mm 0.00 in0.0 mm 1.54 in39.1 mm
07:40 PM 58.9°F14.9°C 56.0°F13.3°C 89% 1.0 mph E1.6 kmh E 27.0 mph43.5 kmh 29.14 in986.8 mb 0.00 in0.0 mm 0.00 in0.0 mm 1.54 in39.1 mm
07:45 PM 58.9°F14.9°C 56.0°F13.3°C 89% 3.0 mph S4.8 kmh S 27.0 mph43.5 kmh 29.13 in986.5 mb 0.00 in0.0 mm 0.00 in0.0 mm 1.54 in39.1 mm
07:50 PM 58.8°F14.9°C 56.0°F13.3°C 89% 6.0 mph SSE9.7 kmh SSE 27.0 mph43.5 kmh 29.13 in986.5 mb 0.00 in0.0 mm 0.00 in0.0 mm 1.54 in39.1 mm
07:55 PM 58.7°F14.8°C 56.0°F13.3°C 89% 10.0 mph SSW16.1 kmh SSW 27.0 mph43.5 kmh 29.13 in986.5 mb 0.00 in0.0 mm 0.00 in0.0 mm 1.54 in39.1 mm
08:00 PM 58.6°F14.8°C 55.0°F12.8°C 89% 18.0 mph SW29.0 kmh SW 22.0 mph35.4 kmh 29.13 in986.5 mb 0.00 in0.0 mm 0.00 in0.0 mm 1.54 in39.1 mm
08:05 PM 58.5°F14.7°C 55.0°F12.8°C 89% 14.0 mph SW22.5 kmh SW 22.0 mph35.4 kmh 29.13 in986.5 mb 0.00 in0.0 mm 0.00 in0.0 mm 1.54 in39.1 mm
08:10 PM 58.4°F14.7°C 55.0°F12.8°C 89% 9.0 mph SW14.5 kmh SW 26.0 mph41.8 kmh 29.13 in986.5 mb 0.00 in0.0 mm 0.00 in0.0 mm 1.54 in39.1 mm
08:15 PM 58.3°F14.6°C 55.0°F12.8°C 89% 15.0 mph SSW24.1 kmh SSW 26.0 mph41.8 kmh 29.13 in986.5 mb 0.00 in0.0 mm 0.00 in0.0 mm 1.55 in39.4 mm
08:20 PM 58.2°F14.6°C 55.0°F12.8°C 89% 14.0 mph SW22.5 kmh SW 27.0 mph43.5 kmh 29.13 in986.5 mb 0.00 in0.0 mm 0.00 in0.0 mm 1.55 in39.4 mm
08:25 PM 57.9°F14.4°C 55.0°F12.8°C 89% 5.0 mph SSW8.0 kmh SSW 28.0 mph45.1 kmh 29.13 in986.5 mb 0.00 in0.0 mm 0.00 in0.0 mm 1.55 in39.4 mm
08:30 PM 57.7°F14.3°C 55.0°F12.8°C 89% 10.0 mph S16.1 kmh S 28.0 mph45.1 kmh 29.13 in986.5 mb 0.00 in0.0 mm 0.00 in0.0 mm 1.55 in39.4 mm
08:35 PM 57.5°F14.2°C 54.0°F12.2°C 89% 6.0 mph SW9.7 kmh SW 25.0 mph40.2 kmh 29.12 in986.1 mb 0.00 in0.0 mm 0.00 in0.0 mm 1.55 in39.4 mm
08:40 PM 57.3°F14.1°C 54.0°F12.2°C 89% 12.0 mph WSW19.3 kmh WSW 22.0 mph35.4 kmh 29.12 in986.1 mb 0.00 in0.0 mm 0.00 in0.0 mm 1.55 in39.4 mm
08:45 PM 57.0°F13.9°C 54.0°F12.2°C 89% 6.0 mph SSW9.7 kmh SSW 21.0 mph33.8 kmh 29.12 in986.1 mb 0.00 in0.0 mm 0.00 in0.0 mm 1.55 in39.4 mm
08:50 PM 56.8°F13.8°C 54.0°F12.2°C 89% 14.0 mph SW22.5 kmh SW 22.0 mph35.4 kmh 29.12 in986.1 mb 0.00 in0.0 mm 0.00 in0.0 mm 1.55 in39.4 mm
08:55 PM 56.6°F13.7°C 54.0°F12.2°C 89% 15.0 mph SW24.1 kmh SW 22.0 mph35.4 kmh 29.13 in986.5 mb 0.00 in0.0 mm 0.00 in0.0 mm 1.55 in39.4 mm
09:00 PM 56.2°F13.4°C 53.0°F11.7°C 89% 13.0 mph SSW20.9 kmh SSW 28.0 mph45.1 kmh 29.13 in986.5 mb 0.00 in0.0 mm 0.00 in0.0 mm 1.55 in39.4 mm
09:05 PM 55.9°F13.3°C 53.0°F11.7°C 89% 10.0 mph SW16.1 kmh SW 28.0 mph45.1 kmh 29.13 in986.5 mb 0.00 in0.0 mm 0.00 in0.0 mm 1.55 in39.4 mm
09:10 PM 55.5°F13.1°C 52.0°F11.1°C 88% 9.0 mph S14.5 kmh S 31.0 mph49.9 kmh 29.13 in986.5 mb 0.00 in0.0 mm 0.00 in0.0 mm 1.55 in39.4 mm
09:15 PM 55.2°F12.9°C 52.0°F11.1°C 89% 8.0 mph SSW12.9 kmh SSW 31.0 mph49.9 kmh 29.12 in986.1 mb 0.00 in0.0 mm 0.00 in0.0 mm 1.55 in39.4 mm
09:20 PM 54.9°F12.7°C 52.0°F11.1°C 88% 6.0 mph SSW9.7 kmh SSW 26.0 mph41.8 kmh 29.13 in986.5 mb 0.00 in0.0 mm 0.00 in0.0 mm 1.55 in39.4 mm
09:25 PM 54.7°F12.6°C 51.0°F10.6°C 88% 6.0 mph SE9.7 kmh SE 26.0 mph41.8 kmh 29.13 in986.5 mb 0.00 in0.0 mm 0.00 in0.0 mm 1.55 in39.4 mm
09:30 PM 54.5°F12.5°C 51.0°F10.6°C 89% 10.0 mph S16.1 kmh S 21.0 mph33.8 kmh 29.13 in986.5 mb 0.00 in0.0 mm 0.00 in0.0 mm 1.55 in39.4 mm
09:35 PM 54.3°F12.4°C 51.0°F10.6°C 88% 7.0 mph SW11.3 kmh SW 23.0 mph37.0 kmh 29.13 in986.5 mb 0.00 in0.0 mm 0.00 in0.0 mm 1.55 in39.4 mm
09:40 PM 54.2°F12.3°C 51.0°F10.6°C 88% 4.0 mph NE6.4 kmh NE 25.0 mph40.2 kmh 29.13 in986.5 mb 0.00 in0.0 mm 0.00 in0.0 mm 1.55 in39.4 mm
09:45 PM 54.1°F12.3°C 51.0°F10.6°C 88% 10.0 mph SW16.1 kmh SW 25.0 mph40.2 kmh 29.13 in986.5 mb 0.00 in0.0 mm 0.00 in0.0 mm 1.55 in39.4 mm
09:50 PM 53.9°F12.2°C 51.0°F10.6°C 89% 9.0 mph WSW14.5 kmh WSW 25.0 mph40.2 kmh 29.13 in986.5 mb 0.00 in0.0 mm 0.00 in0.0 mm 1.55 in39.4 mm
09:55 PM 53.7°F12.1°C 51.0°F10.6°C 89% 9.0 mph SSW14.5 kmh SSW 25.0 mph40.2 kmh 29.13 in986.5 mb 0.00 in0.0 mm 0.00 in0.0 mm 1.55 in39.4 mm
10:00 PM 53.5°F11.9°C 50.0°F10.0°C 88% 4.0 mph N6.4 kmh N 27.0 mph43.5 kmh 29.13 in986.5 mb 0.00 in0.0 mm 0.00 in0.0 mm 1.55 in39.4 mm
10:05 PM 53.3°F11.8°C 50.0°F10.0°C 88% 5.0 mph SSE8.0 kmh SSE 28.0 mph45.1 kmh 29.14 in986.8 mb 0.00 in0.0 mm 0.00 in0.0 mm 1.55 in39.4 mm
10:10 PM 53.0°F11.7°C 50.0°F10.0°C 88% 5.0 mph WSW8.0 kmh WSW 28.0 mph45.1 kmh 29.14 in986.8 mb 0.00 in0.0 mm 0.00 in0.0 mm 1.55 in39.4 mm
10:15 PM 52.9°F11.6°C 50.0°F10.0°C 88% 8.0 mph SSW12.9 kmh SSW 25.0 mph40.2 kmh 29.14 in986.8 mb 0.00 in0.0 mm 0.00 in0.0 mm 1.55 in39.4 mm
10:20 PM 52.6°F11.4°C 49.0°F9.4°C 88% 11.0 mph SSW17.7 kmh SSW 23.0 mph37.0 kmh 29.14 in986.8 mb 0.00 in0.0 mm 0.00 in0.0 mm 1.55 in39.4 mm
10:25 PM 52.6°F11.4°C 49.0°F9.4°C 88% 7.0 mph SSW11.3 kmh SSW 24.0 mph38.6 kmh 29.14 in986.8 mb 0.00 in0.0 mm 0.00 in0.0 mm 1.55 in39.4 mm
10:30 PM 52.4°F11.3°C 49.0°F9.4°C 88% 4.0 mph WSW6.4 kmh WSW 24.0 mph38.6 kmh 29.13 in986.5 mb 0.00 in0.0 mm 0.00 in0.0 mm 1.55 in39.4 mm
10:35 PM 52.3°F11.3°C 49.0°F9.4°C 88% 13.0 mph SW20.9 kmh SW 21.0 mph33.8 kmh 29.13 in986.5 mb 0.00 in0.0 mm 0.00 in0.0 mm 1.55 in39.4 mm
10:40 PM 52.2°F11.2°C 49.0°F9.4°C 88% 2.0 mph WSW3.2 kmh WSW 20.0 mph32.2 kmh 29.14 in986.8 mb 0.00 in0.0 mm 0.00 in0.0 mm 1.55 in39.4 mm
10:45 PM 52.1°F11.2°C 49.0°F9.4°C 88% 19.0 mph S30.6 kmh S 22.0 mph35.4 kmh 29.14 in986.8 mb 0.00 in0.0 mm 0.00 in0.0 mm 1.55 in39.4 mm
10:50 PM 52.1°F11.2°C 49.0°F9.4°C 88% 16.0 mph SSW25.7 kmh SSW 22.0 mph35.4 kmh 29.14 in986.8 mb 0.00 in0.0 mm 0.00 in0.0 mm 1.55 in39.4 mm
10:55 PM 51.9°F11.1°C 49.0°F9.4°C 88% 15.0 mph S24.1 kmh S 19.0 mph30.6 kmh 29.14 in986.8 mb 0.00 in0.0 mm 0.00 in0.0 mm 1.55 in39.4 mm
11:00 PM 51.8°F11.0°C 48.0°F8.9°C 88% 4.0 mph E6.4 kmh E 19.0 mph30.6 kmh 29.14 in986.8 mb 0.00 in0.0 mm 0.00 in0.0 mm 1.55 in39.4 mm
11:05 PM 51.7°F10.9°C 48.0°F8.9°C 88% 9.0 mph WNW14.5 kmh WNW 19.0 mph30.6 kmh 29.14 in986.8 mb 0.00 in0.0 mm 0.00 in0.0 mm 1.55 in39.4 mm
11:10 PM 51.6°F10.9°C 48.0°F8.9°C 87% 9.0 mph SW14.5 kmh SW 23.0 mph37.0 kmh 29.14 in986.8 mb 0.00 in0.0 mm 0.00 in0.0 mm 1.55 in39.4 mm
11:15 PM 51.5°F10.8°C 48.0°F8.9°C 87% 10.0 mph SSW16.1 kmh SSW 26.0 mph41.8 kmh 29.14 in986.8 mb 0.00 in0.0 mm 0.00 in0.0 mm 1.55 in39.4 mm
11:20 PM 51.4°F10.8°C 48.0°F8.9°C 87% 6.0 mph S9.7 kmh S 26.0 mph41.8 kmh 29.15 in987.1 mb 0.00 in0.0 mm 0.00 in0.0 mm 1.55 in39.4 mm
11:25 PM 51.2°F10.7°C 48.0°F8.9°C 87% 7.0 mph WNW11.3 kmh WNW 27.0 mph43.5 kmh 29.15 in987.1 mb 0.00 in0.0 mm 0.00 in0.0 mm 1.55 in39.4 mm
11:30 PM 51.0°F10.6°C 47.0°F8.3°C 86% 8.0 mph SW12.9 kmh SW 31.0 mph49.9 kmh 29.14 in986.8 mb 0.00 in0.0 mm 0.00 in0.0 mm 1.55 in39.4 mm
11:35 PM 51.0°F10.6°C 47.0°F8.3°C 86% 8.0 mph SW12.9 kmh SW 31.0 mph49.9 kmh 29.15 in987.1 mb 0.00 in0.0 mm 0.00 in0.0 mm 1.55 in39.4 mm
11:40 PM 51.0°F10.6°C 47.0°F8.3°C 86% 6.0 mph SW9.7 kmh SW 23.0 mph37.0 kmh 29.15 in987.1 mb 0.00 in0.0 mm 0.00 in0.0 mm 1.55 in39.4 mm
11:45 PM 50.9°F10.5°C 47.0°F8.3°C 86% 7.0 mph S11.3 kmh S 27.0 mph43.5 kmh 29.16 in987.5 mb 0.00 in0.0 mm 0.00 in0.0 mm 1.55 in39.4 mm
11:50 PM 50.8°F10.4°C 47.0°F8.3°C 85% 9.0 mph SSW14.5 kmh SSW 27.0 mph43.5 kmh 29.16 in987.5 mb 0.00 in0.0 mm 0.00 in0.0 mm 1.55 in39.4 mm
11:55 PM 50.8°F10.4°C 47.0°F8.3°C 85% 7.0 mph SE11.3 kmh SE 28.0 mph45.1 kmh 29.16 in987.5 mb 0.00 in0.0 mm 0.00 in0.0 mm 1.55 in39.4 mm